Decoded Metar for K2C8 ( in ) (IATA:) | Meteo·Mobile Aviation Weather
aviador You're here:

K2C8 Decoded Metar

in
Report Time2018-11-12 18:35:00
UTC Time2018-11-12 18:26:50
Flight Rules vfr VFR
Wind300° at 12 kt
W.Rank300° ranks 14
Current wind is above 300° avg. (9.3)
Visibility9999 m
Phenomena:N/A
Clouds:Few 035 Hf
Expected CloudBase > 3,200 ft AGL from Temp-Dew spread
CeilingNone
Temp-11°C
Dew Point-19°C (52% RH)
AAT-18.9°C
QNH1035 hPa
Raw Report
METAR K2C8 121835Z AUTO 30012KT 10SM FEW035 M11/M19 A3056 RMK AO2=

Extra information for K2C8:More info

Social comments